Fleming, Kentucky
Current Conditions -  °F | °C
As of 1:15 AM on Thursday 23 Oct 2014 (Local Time) from KLNP Reporting Station
Overcast Overcast  
Wind Chill: 38°   Ceiling: 1200
Heat Index: 43°   Visibility: 10mi
Dew Point: 43°   Wind: 8mph
Humidity: 100%   Direction: 350°N
Pressure: 30.18"   Gusts: 16mph
Location:  37.216°N, 82.7112°W
Report Text: KLNP 230515Z AUTO 35007G14KT 10SM OVC012 06/06 A3018 RMK AO2
Loading
Personal Weather Stations






























Interactive Weather Map
Tropical Storm Tracking
New forecast layout! Learn more

10-Day Weather Forecast

Advertisements
Track Severe Weather on mobile